createdAt,value
2023-04-01T00:01:02.297Z,21.25
2023-04-01T00:03:29.384Z,21.19
2023-04-01T00:05:56.393Z,21.19
2023-04-01T00:08:23.337Z,21.13
2023-04-01T00:10:50.236Z,21.13
2023-04-01T00:13:17.161Z,21.06
2023-04-01T00:15:44.097Z,21.06
2023-04-01T00:18:11.057Z,21.00
2023-04-01T00:20:38.010Z,21.00
2023-04-01T00:23:04.929Z,20.94
2023-04-01T00:25:32.089Z,20.88
2023-04-01T00:27:59.164Z,20.88
2023-04-01T00:30:26.121Z,20.81
2023-04-01T00:32:53.138Z,20.81
2023-04-01T00:35:20.115Z,20.81
2023-04-01T00:37:47.031Z,20.75
2023-04-01T00:40:13.968Z,20.69
2023-04-01T00:42:40.898Z,20.69
2023-04-01T00:45:07.844Z,20.63
2023-04-01T00:47:34.840Z,20.63
2023-04-01T00:50:01.783Z,20.56
2023-04-01T00:52:28.721Z,20.56
2023-04-01T00:54:55.642Z,20.50
2023-04-01T00:57:22.616Z,20.50
2023-04-01T00:59:49.572Z,20.50
2023-04-01T01:02:16.533Z,20.44
2023-04-01T01:04:43.517Z,20.44
2023-04-01T01:07:10.452Z,20.38
2023-04-01T01:09:37.350Z,20.38
2023-04-01T01:12:04.278Z,20.31
2023-04-01T01:14:31.239Z,20.31
2023-04-01T01:16:58.187Z,20.31
2023-04-01T01:19:25.121Z,20.25
2023-04-01T01:21:52.028Z,20.25
2023-04-01T01:24:18.993Z,20.19
2023-04-01T01:26:45.907Z,20.19
2023-04-01T01:29:12.819Z,20.19
2023-04-01T01:31:39.732Z,20.13
2023-04-01T01:34:06.689Z,20.13
2023-04-01T01:36:33.597Z,20.13
2023-04-01T01:39:00.514Z,20.06
2023-04-01T01:41:27.448Z,20.06
2023-04-01T01:43:54.366Z,20.00
2023-04-01T01:46:21.286Z,20.00
2023-04-01T01:48:48.219Z,20.00
2023-04-01T01:51:15.204Z,19.94
2023-04-01T01:53:42.150Z,19.94
2023-04-01T01:56:09.092Z,19.94
2023-04-01T01:58:36.009Z,19.88
2023-04-01T02:01:03.188Z,19.88
2023-04-01T02:03:30.164Z,19.81
2023-04-01T02:05:57.128Z,19.81
2023-04-01T02:08:24.059Z,19.81
2023-04-01T02:10:50.969Z,19.75
2023-04-01T02:13:17.887Z,19.75
2023-04-01T02:15:44.844Z,19.75
2023-04-01T02:18:11.872Z,19.69
2023-04-01T02:20:38.847Z,19.69
2023-04-01T02:23:05.747Z,19.69
2023-04-01T02:25:32.820Z,19.69
2023-04-01T02:27:59.832Z,19.69
2023-04-01T02:30:26.785Z,19.63
2023-04-01T02:32:53.723Z,19.63
2023-04-01T02:35:20.695Z,19.63
2023-04-01T02:37:47.638Z,19.56
2023-04-01T02:40:14.553Z,19.56
2023-04-01T02:42:41.507Z,19.56
2023-04-01T02:45:08.468Z,19.56
2023-04-01T02:47:35.442Z,19.50
2023-04-01T02:50:02.456Z,19.50
2023-04-01T02:52:29.403Z,19.50
2023-04-01T02:54:56.364Z,19.50
2023-04-01T02:57:23.309Z,19.44
2023-04-01T02:59:50.244Z,19.44
2023-04-01T03:02:17.199Z,19.44
2023-04-01T03:04:44.158Z,19.38
2023-04-01T03:07:11.101Z,19.38
2023-04-01T03:09:38.032Z,19.38
2023-04-01T03:12:04.961Z,19.31
2023-04-01T03:14:31.903Z,19.31
2023-04-01T03:16:58.842Z,19.31
2023-04-01T03:19:25.779Z,19.31
2023-04-01T03:21:52.710Z,19.25
2023-04-01T03:24:19.773Z,19.25
2023-04-01T03:26:46.722Z,19.25
2023-04-01T03:29:13.656Z,19.19
2023-04-01T03:31:40.591Z,19.19
2023-04-01T03:34:07.488Z,19.19
2023-04-01T03:36:34.491Z,19.19
2023-04-01T03:39:01.438Z,19.13
2023-04-01T03:41:28.387Z,19.13
2023-04-01T03:43:55.293Z,19.13
2023-04-01T03:46:22.258Z,19.13
2023-04-01T03:48:49.192Z,19.06
2023-04-01T03:51:16.167Z,19.06
2023-04-01T03:53:43.095Z,19.06
2023-04-01T03:56:10.022Z,19.00
2023-04-01T03:58:36.942Z,20.00
2023-04-01T04:01:03.866Z,20.44
2023-04-01T04:03:31.051Z,20.63
2023-04-01T04:05:58.147Z,21.75
2023-04-01T04:08:25.074Z,28.88
2023-04-01T04:10:52.008Z,33.06
2023-04-01T04:13:18.933Z,32.94
2023-04-01T04:15:45.863Z,32.00
2023-04-01T04:18:12.820Z,29.63
2023-04-01T04:20:39.738Z,26.19
2023-04-01T04:23:06.659Z,26.56
2023-04-01T04:25:33.778Z,32.00
2023-04-01T04:28:00.966Z,34.38
2023-04-01T04:30:27.884Z,34.88
2023-04-01T04:32:54.817Z,34.75
2023-04-01T04:35:21.770Z,30.81
2023-04-01T04:37:48.730Z,29.13
2023-04-01T04:40:15.662Z,32.44
2023-04-01T04:42:42.591Z,34.69
2023-04-01T04:45:09.527Z,35.44
2023-04-01T04:47:36.476Z,34.88
2023-04-01T04:50:03.478Z,33.56
2023-04-01T04:52:30.400Z,33.25
2023-04-01T04:54:57.342Z,34.81
2023-04-01T04:57:24.306Z,35.56
2023-04-01T04:59:51.256Z,36.06
2023-04-01T05:02:18.179Z,36.38
2023-04-01T05:04:45.181Z,36.69
2023-04-01T05:07:12.145Z,37.00
2023-04-01T05:09:39.079Z,37.38
2023-04-01T05:12:06.025Z,37.50
2023-04-01T05:14:32.925Z,37.38
2023-04-01T05:17:00.065Z,37.50
2023-04-01T05:19:27.040Z,37.31
2023-04-01T05:21:53.961Z,37.44
2023-04-01T05:24:20.867Z,37.44
2023-04-01T05:26:47.770Z,37.44
2023-04-01T05:29:14.768Z,37.56
2023-04-01T05:31:41.712Z,37.69
2023-04-01T05:34:08.642Z,37.56
2023-04-01T05:36:35.572Z,37.44
2023-04-01T05:39:02.557Z,37.44
2023-04-01T05:41:29.501Z,37.25
2023-04-01T05:43:56.437Z,37.06
2023-04-01T05:46:23.406Z,36.94
2023-04-01T05:48:50.458Z,36.75
2023-04-01T05:51:17.384Z,36.56
2023-04-01T05:53:44.386Z,36.38
2023-04-01T05:56:11.329Z,36.25
2023-04-01T05:58:38.283Z,36.06
2023-04-01T06:01:10.135Z,35.94
2023-04-01T06:03:39.845Z,36.13
2023-04-01T06:06:06.892Z,36.25
2023-04-01T06:08:33.864Z,36.25
2023-04-01T06:11:00.904Z,36.38
2023-04-01T06:13:27.837Z,36.44
2023-04-01T06:15:54.793Z,36.56
2023-04-01T06:18:21.758Z,36.63
2023-04-01T06:20:48.675Z,36.69
2023-04-01T06:23:15.604Z,36.81
2023-04-01T06:25:42.543Z,36.88
2023-04-01T06:28:09.552Z,36.88
2023-04-01T06:30:36.645Z,36.75
2023-04-01T06:33:03.635Z,36.56
2023-04-01T06:35:30.710Z,36.44
2023-04-01T06:37:57.661Z,36.31
2023-04-01T06:40:24.618Z,36.19
2023-04-01T06:42:51.553Z,36.19
2023-04-01T06:45:18.543Z,36.19
2023-04-01T06:47:45.742Z,36.19
2023-04-01T06:50:12.742Z,36.31
2023-04-01T06:52:39.684Z,36.38
2023-04-01T06:55:06.607Z,36.44
2023-04-01T06:57:33.587Z,36.56
2023-04-01T07:00:00.558Z,36.63
2023-04-01T07:02:27.526Z,36.81
2023-04-01T07:04:54.474Z,36.94
2023-04-01T07:07:21.401Z,37.06
2023-04-01T07:09:48.312Z,37.19
2023-04-01T07:12:15.221Z,37.19
2023-04-01T07:14:42.132Z,37.13
2023-04-01T07:17:09.122Z,37.06
2023-04-01T07:19:36.061Z,36.94
2023-04-01T07:22:03.207Z,36.81
2023-04-01T07:24:30.112Z,36.69
2023-04-01T07:26:57.026Z,36.50
2023-04-01T07:29:23.959Z,36.06
2023-04-01T07:31:50.886Z,35.44
2023-04-01T07:34:17.813Z,35.75
2023-04-01T07:36:44.727Z,35.88
2023-04-01T07:39:11.620Z,35.94
2023-04-01T07:41:38.635Z,35.94
2023-04-01T07:44:05.558Z,36.00
2023-04-01T07:46:32.582Z,36.06
2023-04-01T07:48:59.603Z,36.00
2023-04-01T07:51:26.528Z,35.94
2023-04-01T07:53:53.443Z,35.81
2023-04-01T07:56:20.376Z,35.75
2023-04-01T07:58:47.291Z,35.63
2023-04-01T08:01:14.223Z,35.63
2023-04-01T08:03:41.246Z,35.63
2023-04-01T08:06:08.255Z,35.63
2023-04-01T08:08:35.217Z,35.56
2023-04-01T08:11:02.178Z,35.63
2023-04-01T08:13:29.096Z,35.81
2023-04-01T08:15:56.033Z,35.94
2023-04-01T08:18:22.974Z,36.00
2023-04-01T08:20:49.914Z,36.13
2023-04-01T08:23:16.837Z,36.25
2023-04-01T08:25:43.747Z,36.38
2023-04-01T08:28:10.653Z,36.50
2023-04-01T08:30:37.572Z,36.63
2023-04-01T08:33:04.609Z,36.75
2023-04-01T08:35:32.417Z,36.81
2023-04-01T08:38:00.289Z,36.81
2023-04-01T08:40:27.353Z,36.69
2023-04-01T08:42:54.269Z,36.56
2023-04-01T08:45:21.179Z,36.44
2023-04-01T08:47:48.142Z,36.31
2023-04-01T08:50:15.196Z,36.19
2023-04-01T08:52:42.116Z,36.06
2023-04-01T08:55:09.015Z,35.94
2023-04-01T08:57:35.994Z,36.13
2023-04-01T09:00:02.978Z,36.25
2023-04-01T09:02:29.958Z,36.38
2023-04-01T09:04:56.943Z,36.44
2023-04-01T09:07:23.866Z,36.56
2023-04-01T09:09:50.827Z,36.69
2023-04-01T09:12:17.732Z,36.75
2023-04-01T09:14:44.659Z,36.81
2023-04-01T09:17:11.581Z,36.69
2023-04-01T09:19:38.547Z,36.69
2023-04-01T09:22:05.472Z,36.69
2023-04-01T09:24:32.430Z,36.56
2023-04-01T09:26:59.736Z,36.44
2023-04-01T09:29:26.827Z,36.25
2023-04-01T09:31:53.787Z,36.06
2023-04-01T09:34:20.752Z,35.94
2023-04-01T09:36:47.680Z,35.75
2023-04-01T09:39:14.614Z,35.63
2023-04-01T09:41:41.550Z,35.44
2023-04-01T09:44:08.458Z,35.38
2023-04-01T09:46:35.430Z,35.50
2023-04-01T09:49:02.367Z,35.50
2023-04-01T09:51:29.359Z,35.56
2023-04-01T09:53:56.278Z,35.63
2023-04-01T09:56:23.235Z,35.75
2023-04-01T09:58:50.142Z,35.88
2023-04-01T10:01:17.065Z,35.94
2023-04-01T10:03:44.015Z,35.94
2023-04-01T10:06:10.954Z,35.88
2023-04-01T10:08:37.954Z,35.75
2023-04-01T10:11:04.928Z,35.63
2023-04-01T10:13:31.893Z,35.50
2023-04-01T10:15:58.840Z,35.31
2023-04-01T10:18:25.770Z,35.19
2023-04-01T10:20:52.697Z,35.00
2023-04-01T10:23:19.611Z,35.00
2023-04-01T10:25:46.554Z,35.19
2023-04-01T10:28:13.478Z,35.25
2023-04-01T10:30:40.396Z,35.38
2023-04-01T10:33:07.368Z,35.50
2023-04-01T10:35:34.569Z,35.63
2023-04-01T10:38:01.838Z,35.69
2023-04-01T10:40:28.763Z,35.75
2023-04-01T10:42:55.687Z,35.75
2023-04-01T10:45:22.602Z,35.69
2023-04-01T10:47:49.574Z,35.50
2023-04-01T10:50:16.515Z,35.38
2023-04-01T10:52:43.456Z,35.25
2023-04-01T10:55:10.358Z,35.13
2023-04-01T10:57:37.296Z,35.00
2023-04-01T11:00:04.245Z,34.94
2023-04-01T11:02:31.201Z,35.00
2023-04-01T11:04:58.186Z,35.06
2023-04-01T11:07:25.146Z,35.19
2023-04-01T11:09:52.118Z,35.25
2023-04-01T11:12:19.089Z,35.38
2023-04-01T11:14:46.060Z,35.56
2023-04-01T11:17:13.011Z,35.69
2023-04-01T11:19:39.949Z,35.75
2023-04-01T11:22:06.894Z,35.69
2023-04-01T11:24:33.852Z,35.56
2023-04-01T11:27:00.825Z,35.50
2023-04-01T11:29:27.769Z,35.38
2023-04-01T11:31:54.743Z,35.25
2023-04-01T11:34:21.728Z,35.13
2023-04-01T11:36:48.761Z,34.94
2023-04-01T11:39:15.729Z,34.94
2023-04-01T11:41:42.669Z,35.00
2023-04-01T11:44:09.693Z,35.13
2023-04-01T11:46:36.689Z,35.19
2023-04-01T11:49:03.825Z,35.31
2023-04-01T11:51:30.812Z,35.44
2023-04-01T11:53:57.750Z,35.56
2023-04-01T11:56:24.661Z,35.69
2023-04-01T11:58:51.603Z,35.75
2023-04-01T12:01:18.541Z,35.75
2023-04-01T12:03:45.610Z,35.63
2023-04-01T12:06:12.691Z,35.50
2023-04-01T12:08:39.634Z,35.38
2023-04-01T12:11:07.728Z,35.31
2023-04-01T12:13:34.626Z,35.13
2023-04-01T12:16:01.623Z,35.06
2023-04-01T12:18:28.575Z,35.06
2023-04-01T12:20:55.507Z,35.19
2023-04-01T12:23:22.437Z,35.31
2023-04-01T12:25:49.356Z,35.38
2023-04-01T12:28:16.301Z,35.50
2023-04-01T12:30:43.265Z,35.63
2023-04-01T12:33:10.250Z,35.75
2023-04-01T12:35:37.237Z,35.81
2023-04-01T12:38:04.211Z,35.88
2023-04-01T12:40:31.263Z,35.81
2023-04-01T12:42:58.324Z,35.75
2023-04-01T12:45:25.237Z,35.63
2023-04-01T12:47:52.205Z,35.50
2023-04-01T12:50:19.124Z,35.38
2023-04-01T12:52:46.029Z,35.25
2023-04-01T12:55:12.944Z,35.13
2023-04-01T12:57:39.913Z,35.13
2023-04-01T13:00:06.880Z,35.25
2023-04-01T13:02:33.844Z,35.44
2023-04-01T13:05:00.799Z,35.50
2023-04-01T13:07:27.719Z,35.56
2023-04-01T13:09:54.666Z,35.69
2023-04-01T13:12:21.648Z,35.81
2023-04-01T13:14:48.589Z,35.94
2023-04-01T13:17:15.505Z,36.00
2023-04-01T13:19:46.471Z,36.00
2023-04-01T13:22:21.184Z,35.88
2023-04-01T13:24:48.122Z,35.75
2023-04-01T13:27:15.038Z,35.63
2023-04-01T13:29:41.963Z,35.50
2023-04-01T13:32:08.882Z,35.38
2023-04-01T13:34:35.842Z,35.25
2023-04-01T13:37:02.761Z,35.13
2023-04-01T13:39:29.717Z,35.25
2023-04-01T13:41:56.633Z,35.38
2023-04-01T13:44:23.550Z,35.44
2023-04-01T13:46:50.503Z,35.56
2023-04-01T13:49:17.466Z,35.69
2023-04-01T13:51:44.385Z,35.81
2023-04-01T13:54:11.341Z,35.94
2023-04-01T13:56:38.258Z,36.00
2023-04-01T13:59:05.195Z,36.06
2023-04-01T14:01:32.184Z,35.94
2023-04-01T14:03:59.171Z,35.88
2023-04-01T14:06:26.153Z,35.75
2023-04-01T14:08:53.075Z,35.63
2023-04-01T14:11:19.990Z,35.50
2023-04-01T14:13:46.998Z,35.38
2023-04-01T14:16:13.941Z,35.19
2023-04-01T14:18:40.872Z,35.25
2023-04-01T14:21:07.828Z,35.38
2023-04-01T14:23:34.699Z,35.50
2023-04-01T14:26:01.621Z,35.63
2023-04-01T14:28:28.550Z,35.69
2023-04-01T14:30:55.542Z,35.81
2023-04-01T14:33:22.505Z,35.94
2023-04-01T14:35:49.481Z,36.00
2023-04-01T14:38:16.427Z,36.06
2023-04-01T14:40:43.387Z,36.06
2023-04-01T14:43:10.300Z,35.94
2023-04-01T14:45:37.353Z,35.81
2023-04-01T14:48:04.460Z,35.69
2023-04-01T14:50:31.438Z,35.56
2023-04-01T14:52:58.369Z,35.44
2023-04-01T14:55:25.307Z,35.31
2023-04-01T14:57:52.277Z,35.19
2023-04-01T15:00:19.186Z,35.25
2023-04-01T15:02:46.158Z,35.38
2023-04-01T15:05:13.212Z,35.50
2023-04-01T15:07:40.177Z,35.56
2023-04-01T15:10:08.890Z,35.69
2023-04-01T15:12:36.099Z,35.81
2023-04-01T15:15:03.015Z,35.94
2023-04-01T15:17:30.005Z,36.00
2023-04-01T15:19:56.999Z,36.00
2023-04-01T15:22:24.015Z,35.94
2023-04-01T15:24:51.007Z,35.81
2023-04-01T15:27:17.937Z,35.69
2023-04-01T15:29:44.879Z,35.56
2023-04-01T15:32:11.791Z,35.44
2023-04-01T15:34:38.713Z,35.38
2023-04-01T15:37:05.620Z,35.44
2023-04-01T15:39:32.556Z,35.69
2023-04-01T15:41:59.457Z,35.94
2023-04-01T15:44:26.364Z,36.06
2023-04-01T15:46:53.362Z,36.19
2023-04-01T15:49:20.278Z,36.31
2023-04-01T15:51:47.208Z,36.44
2023-04-01T15:54:14.134Z,36.63
2023-04-01T15:56:41.076Z,36.75
2023-04-01T15:59:07.992Z,36.88
2023-04-01T16:01:34.976Z,37.00
2023-04-01T16:04:01.988Z,37.19
2023-04-01T16:06:28.956Z,37.13
2023-04-01T16:08:55.893Z,37.06
2023-04-01T16:11:22.796Z,36.94
2023-04-01T16:13:49.736Z,36.81
2023-04-01T16:16:16.700Z,36.69
2023-04-01T16:18:43.616Z,36.56
2023-04-01T16:21:10.533Z,36.44
2023-04-01T16:23:37.491Z,36.25
2023-04-01T16:26:04.402Z,35.69
2023-04-01T16:28:31.330Z,35.56
2023-04-01T16:30:58.264Z,35.63
2023-04-01T16:33:25.244Z,35.63
2023-04-01T16:35:52.201Z,35.69
2023-04-01T16:38:19.158Z,35.75
2023-04-01T16:40:46.154Z,35.81
2023-04-01T16:43:13.076Z,35.88
2023-04-01T16:45:40.047Z,35.81
2023-04-01T16:48:06.995Z,35.69
2023-04-01T16:50:34.207Z,35.63
2023-04-01T16:53:01.236Z,35.69
2023-04-01T16:55:28.157Z,35.69
2023-04-01T16:57:55.096Z,35.69
2023-04-01T17:00:22.022Z,35.75
2023-04-01T17:02:48.949Z,35.50
2023-04-01T17:05:15.921Z,35.44
2023-04-01T17:07:42.842Z,35.69
2023-04-01T17:10:09.732Z,35.75
2023-04-01T17:12:36.658Z,35.88
2023-04-01T17:15:03.575Z,36.00
2023-04-01T17:17:30.646Z,36.19
2023-04-01T17:19:57.657Z,36.31
2023-04-01T17:22:24.557Z,36.38
2023-04-01T17:24:51.479Z,36.31
2023-04-01T17:27:18.446Z,36.19
2023-04-01T17:29:45.424Z,36.13
2023-04-01T17:32:12.360Z,36.00
2023-04-01T17:34:39.273Z,35.88
2023-04-01T17:37:06.188Z,35.88
2023-04-01T17:39:33.132Z,35.88
2023-04-01T17:42:00.115Z,36.00
2023-04-01T17:44:27.064Z,36.25
2023-04-01T17:46:54.019Z,36.38
2023-04-01T17:49:20.951Z,36.50
2023-04-01T17:51:47.926Z,36.69
2023-04-01T17:54:14.853Z,36.81
2023-04-01T17:56:41.751Z,37.00
2023-04-01T17:59:08.724Z,37.13
2023-04-01T18:01:35.651Z,37.25
2023-04-01T18:04:02.692Z,37.38
2023-04-01T18:06:29.632Z,37.38
2023-04-01T18:08:56.538Z,37.31
2023-04-01T18:11:23.468Z,37.25
2023-04-01T18:13:50.380Z,37.19
2023-04-01T18:16:17.330Z,37.13
2023-04-01T18:18:44.285Z,37.00
2023-04-01T18:21:11.218Z,36.88
2023-04-01T18:23:38.144Z,36.75
2023-04-01T18:26:05.351Z,36.88
2023-04-01T18:28:32.264Z,37.00
2023-04-01T18:30:59.196Z,37.06
2023-04-01T18:33:26.118Z,37.13
2023-04-01T18:35:53.148Z,37.25
2023-04-01T18:38:20.120Z,37.38
2023-04-01T18:40:47.028Z,37.50
2023-04-01T18:43:13.932Z,37.50
2023-04-01T18:45:40.860Z,37.31
2023-04-01T18:48:07.936Z,37.25
2023-04-01T18:50:35.094Z,37.25
2023-04-01T18:53:02.263Z,37.19
2023-04-01T18:55:29.161Z,37.06
2023-04-01T18:57:56.085Z,36.94
2023-04-01T19:00:23.004Z,36.75
2023-04-01T19:02:49.999Z,36.56
2023-04-01T19:05:16.987Z,36.31
2023-04-01T19:07:43.924Z,36.00
2023-04-01T19:10:10.882Z,35.75
2023-04-01T19:12:37.819Z,35.50
2023-04-01T19:15:04.799Z,35.19
2023-04-01T19:17:32.242Z,34.94
2023-04-01T19:19:59.279Z,34.69
2023-04-01T19:22:26.204Z,34.44
2023-04-01T19:24:53.255Z,34.19
2023-04-01T19:27:20.193Z,33.88
2023-04-01T19:29:47.114Z,33.63
2023-04-01T19:32:14.037Z,33.38
2023-04-01T19:34:41.086Z,33.13
2023-04-01T19:37:07.997Z,32.81
2023-04-01T19:39:34.911Z,32.56
2023-04-01T19:42:01.869Z,32.31
2023-04-01T19:44:28.797Z,32.13
2023-04-01T19:46:55.758Z,31.94
2023-04-01T19:49:22.738Z,31.69
2023-04-01T19:51:49.652Z,31.50
2023-04-01T19:54:16.576Z,31.31
2023-04-01T19:56:43.501Z,31.13
2023-04-01T19:59:10.406Z,30.88
2023-04-01T20:01:44.879Z,30.69
2023-04-01T20:04:12.479Z,30.50
2023-04-01T20:06:39.464Z,30.31
2023-04-01T20:09:06.417Z,30.13
2023-04-01T20:11:33.328Z,29.94
2023-04-01T20:14:00.266Z,29.81
2023-04-01T20:16:27.241Z,29.63
2023-04-01T20:18:54.210Z,29.38
2023-04-01T20:21:21.192Z,29.19
2023-04-01T20:23:48.103Z,29.00
2023-04-01T20:26:15.051Z,28.81
2023-04-01T20:28:41.961Z,28.69
2023-04-01T20:31:08.880Z,28.63
2023-04-01T20:33:35.804Z,28.56
2023-04-01T20:36:02.783Z,28.50
2023-04-01T20:38:29.704Z,28.44
2023-04-01T20:40:56.636Z,28.31
2023-04-01T20:43:23.540Z,28.19
2023-04-01T20:45:50.521Z,28.06
2023-04-01T20:48:17.471Z,27.94
2023-04-01T20:50:44.378Z,27.81
2023-04-01T20:53:11.301Z,27.63
2023-04-01T20:55:38.208Z,27.44
2023-04-01T20:58:05.137Z,27.31
2023-04-01T21:00:32.054Z,27.19
2023-04-01T21:02:58.997Z,27.06
2023-04-01T21:05:25.996Z,26.94
2023-04-01T21:07:52.917Z,26.81
2023-04-01T21:10:19.820Z,26.63
2023-04-01T21:12:46.761Z,26.50
2023-04-01T21:15:13.701Z,26.38
2023-04-01T21:17:40.678Z,26.25
2023-04-01T21:20:07.655Z,26.19
2023-04-01T21:22:34.580Z,26.06
2023-04-01T21:25:01.513Z,25.94
2023-04-01T21:27:28.462Z,25.81
2023-04-01T21:29:55.380Z,25.75
2023-04-01T21:32:22.360Z,25.63
2023-04-01T21:34:50.723Z,25.50
2023-04-01T21:37:19.561Z,25.44
2023-04-01T21:39:46.465Z,25.31
2023-04-01T21:42:13.364Z,25.19
2023-04-01T21:44:40.300Z,25.13
2023-04-01T21:47:07.193Z,25.00
2023-04-01T21:49:34.158Z,24.94
2023-04-01T21:52:01.078Z,24.81
2023-04-01T21:54:27.990Z,24.75
2023-04-01T21:56:55.005Z,24.63
2023-04-01T21:59:21.981Z,24.56
2023-04-01T22:01:48.990Z,24.44
2023-04-01T22:04:16.038Z,24.38
2023-04-01T22:06:43.020Z,24.31
2023-04-01T22:09:09.975Z,24.25
2023-04-01T22:11:36.899Z,24.13
2023-04-01T22:14:03.790Z,24.06
2023-04-01T22:16:30.748Z,24.00
2023-04-01T22:18:57.666Z,23.94
2023-04-01T22:21:24.601Z,23.88
2023-04-01T22:23:51.518Z,23.75
2023-04-01T22:26:18.441Z,23.75
2023-04-01T22:28:45.353Z,23.69
2023-04-01T22:31:12.304Z,23.56
2023-04-01T22:33:39.206Z,23.56
2023-04-01T22:36:06.133Z,23.50
2023-04-01T22:38:33.072Z,23.44
2023-04-01T22:40:59.968Z,23.38
2023-04-01T22:43:27.073Z,23.31
2023-04-01T22:45:54.049Z,23.25
2023-04-01T22:48:21.016Z,23.19
2023-04-01T22:50:47.922Z,23.13
2023-04-01T22:53:14.827Z,23.06
2023-04-01T22:55:53.617Z,23.00
2023-04-01T22:58:20.973Z,22.94
2023-04-01T23:00:47.923Z,22.88
2023-04-01T23:03:14.826Z,22.81
2023-04-01T23:05:41.770Z,22.75
2023-04-01T23:08:08.693Z,22.75
2023-04-01T23:10:35.675Z,22.69
2023-04-01T23:13:02.593Z,22.63
2023-04-01T23:15:29.583Z,22.56
2023-04-01T23:17:56.550Z,22.50
2023-04-01T23:20:23.495Z,22.44
2023-04-01T23:22:50.404Z,22.38
2023-04-01T23:25:17.326Z,22.38
2023-04-01T23:27:44.271Z,22.31
2023-04-01T23:30:11.206Z,22.25
2023-04-01T23:32:38.182Z,22.19
2023-04-01T23:35:05.118Z,22.19
2023-04-01T23:37:32.024Z,22.13
2023-04-01T23:39:59.005Z,22.06
2023-04-01T23:42:26.024Z,22.00
2023-04-01T23:44:52.944Z,22.00
2023-04-01T23:47:19.891Z,21.94
2023-04-01T23:49:46.787Z,21.88
2023-04-01T23:52:13.708Z,21.81
2023-04-01T23:54:40.613Z,21.81
2023-04-01T23:57:07.593Z,21.75
2023-04-01T23:59:34.511Z,21.75
